createdAt,value
2019-01-30T00:01:51.347Z,-0.31
2019-01-30T00:02:51.358Z,-0.22
2019-01-30T00:03:51.371Z,-0.22
2019-01-30T00:04:51.383Z,-0.29
2019-01-30T00:05:51.398Z,-0.28
2019-01-30T00:06:51.403Z,-0.23
2019-01-30T00:08:06.083Z,-0.22
2019-01-30T00:08:51.431Z,-0.31
2019-01-30T00:09:51.447Z,-0.28
2019-01-30T00:10:51.451Z,-0.21
2019-01-30T00:12:06.126Z,-0.25
2019-01-30T00:12:51.479Z,-0.23
2019-01-30T00:14:06.153Z,-0.16
2019-01-30T00:14:51.502Z,-0.22
2019-01-30T00:16:01.191Z,-0.26
2019-01-30T00:16:51.528Z,-0.23
2019-01-30T00:17:51.536Z,-0.21
2019-01-30T00:18:51.548Z,-0.23
2019-01-30T00:19:51.664Z,-0.26
2019-01-30T00:20:51.568Z,-0.4
2019-01-30T00:21:51.579Z,-0.42
2019-01-30T00:22:51.594Z,-0.42
2019-01-30T00:23:51.623Z,-0.39
2019-01-30T00:25:06.279Z,-0.42
2019-01-30T00:25:51.627Z,-0.37
2019-01-30T00:26:51.340Z,-0.33
2019-01-30T00:27:51.654Z,-0.46
2019-01-30T00:28:51.659Z,-0.44
2019-01-30T00:30:06.978Z,-0.37
2019-01-30T00:30:51.682Z,-0.31
2019-01-30T00:32:51.706Z,-0.51
2019-01-30T00:33:51.758Z,-0.43
2019-01-30T00:34:51.737Z,-0.42
2019-01-30T00:35:51.757Z,-0.39
2019-01-30T00:37:51.767Z,-0.51
2019-01-30T00:38:51.779Z,-0.54
2019-01-30T00:39:51.785Z,-0.42
2019-01-30T00:41:51.812Z,-0.47
2019-01-30T00:42:51.926Z,-0.52
2019-01-30T00:43:51.836Z,-0.55
2019-01-30T00:45:06.508Z,-0.54
2019-01-30T00:45:51.855Z,-0.52
2019-01-30T00:46:51.873Z,-0.54
2019-01-30T00:47:51.879Z,-0.47
2019-01-30T00:48:51.889Z,-0.49
2019-01-30T00:49:52.018Z,-0.57
2019-01-30T00:50:51.913Z,-0.49
2019-01-30T00:51:51.925Z,-0.54
2019-01-30T00:52:51.943Z,-0.61
2019-01-30T00:53:51.953Z,-0.61
2019-01-30T00:54:51.971Z,-0.58
2019-01-30T00:55:51.974Z,-0.58
2019-01-30T00:56:51.985Z,-0.61
2019-01-30T00:57:51.991Z,-0.64
2019-01-30T00:58:52.007Z,-0.58
2019-01-30T00:59:52.019Z,-0.65
2019-01-30T01:00:52.039Z,-0.61
2019-01-30T01:01:52.037Z,-0.6
2019-01-30T01:02:52.054Z,-0.62
2019-01-30T01:03:52.062Z,-0.67
2019-01-30T01:04:52.071Z,-0.72
2019-01-30T01:05:52.082Z,-0.75
2019-01-30T01:06:52.094Z,-0.67
2019-01-30T01:07:52.188Z,-0.73
2019-01-30T01:08:52.118Z,-0.73
2019-01-30T01:09:52.131Z,-0.69
2019-01-30T01:10:52.248Z,-0.7
2019-01-30T01:11:52.181Z,-0.61
2019-01-30T01:12:52.163Z,-0.67
2019-01-30T01:13:52.280Z,-0.64
2019-01-30T01:15:06.846Z,-0.64
2019-01-30T01:15:52.197Z,-0.72
2019-01-30T01:17:06.871Z,-0.72
2019-01-30T01:17:52.219Z,-0.65
2019-01-30T01:18:52.233Z,-0.75
2019-01-30T01:19:52.246Z,-0.7
2019-01-30T01:20:52.254Z,-0.7
2019-01-30T01:21:52.376Z,-0.75
2019-01-30T01:23:52.288Z,-0.65
2019-01-30T01:24:52.297Z,-0.76
2019-01-30T01:25:52.309Z,-0.72
2019-01-30T01:26:52.319Z,-0.78
2019-01-30T01:28:06.995Z,-0.67
2019-01-30T01:30:07.016Z,-0.69
2019-01-30T01:30:52.371Z,-0.62
2019-01-30T01:31:52.374Z,-0.79
2019-01-30T01:33:07.051Z,-0.78
2019-01-30T01:33:52.400Z,-0.83
2019-01-30T01:34:52.408Z,-0.82
2019-01-30T01:35:52.423Z,-0.8
2019-01-30T01:36:52.437Z,-0.78
2019-01-30T01:37:52.444Z,-0.83
2019-01-30T01:38:52.457Z,-0.83
2019-01-30T01:39:53.498Z,-0.78
2019-01-30T01:40:52.507Z,-0.83
2019-01-30T01:41:52.582Z,-0.82
2019-01-30T01:44:07.174Z,-0.8
2019-01-30T01:44:52.523Z,-0.83
2019-01-30T01:45:52.534Z,-0.69
2019-01-30T01:46:52.585Z,-0.73
2019-01-30T01:47:52.557Z,-0.72
2019-01-30T01:49:07.230Z,-0.72
2019-01-30T01:49:52.578Z,-0.8
2019-01-30T01:50:52.589Z,-0.79
2019-01-30T01:51:52.607Z,-0.79
2019-01-30T01:52:52.619Z,-0.82
2019-01-30T01:53:52.622Z,-0.83
2019-01-30T01:54:52.645Z,-0.8
2019-01-30T01:55:52.651Z,-0.85
2019-01-30T01:56:52.658Z,-0.89
2019-01-30T01:57:52.670Z,-0.86
2019-01-30T01:58:52.679Z,-0.83
2019-01-30T01:59:52.687Z,-0.79
2019-01-30T02:01:07.364Z,-0.82
2019-01-30T02:01:52.714Z,-0.92
2019-01-30T02:02:52.726Z,-0.89
2019-01-30T02:05:07.411Z,-0.92
2019-01-30T02:05:52.770Z,-0.92
2019-01-30T02:06:52.769Z,-0.91
2019-01-30T02:07:52.776Z,-0.94
2019-01-30T02:08:52.789Z,-0.86
2019-01-30T02:09:52.800Z,-0.98
2019-01-30T02:10:52.811Z,-0.89
2019-01-30T02:11:52.823Z,-0.92
2019-01-30T02:12:52.836Z,-0.95
2019-01-30T02:13:52.848Z,-0.95
2019-01-30T02:14:52.858Z,-0.95
2019-01-30T02:16:07.532Z,-0.97
2019-01-30T02:16:52.885Z,-0.98
2019-01-30T02:17:52.895Z,-0.95
2019-01-30T02:18:52.916Z,-1.12
2019-01-30T02:20:07.575Z,-1.04
2019-01-30T02:20:52.936Z,-0.98
2019-01-30T02:21:52.931Z,-1.09
2019-01-30T02:22:52.951Z,-1.04
2019-01-30T02:23:52.956Z,-1.01
2019-01-30T02:24:52.966Z,-1.02
2019-01-30T02:25:52.979Z,-1.04
2019-01-30T02:26:52.989Z,-1.01
2019-01-30T02:28:07.667Z,-1.05
2019-01-30T02:28:52.766Z,-1.04
2019-01-30T02:29:53.020Z,-1.04
2019-01-30T02:30:53.038Z,-1.07
2019-01-30T02:31:53.061Z,-1.12
2019-01-30T02:32:53.063Z,-0.99
2019-01-30T02:33:53.069Z,-1.02
2019-01-30T02:34:53.075Z,-1.09
2019-01-30T02:35:53.089Z,-1.01
2019-01-30T02:36:53.100Z,-1.01
2019-01-30T02:37:53.114Z,-1.05
2019-01-30T02:38:53.120Z,-1.07
2019-01-30T02:39:52.887Z,-1.05
2019-01-30T02:40:53.172Z,-1.12
2019-01-30T02:41:53.158Z,-1.07
2019-01-30T02:42:53.180Z,-1.12
2019-01-30T02:43:53.179Z,-1.02
2019-01-30T02:44:53.188Z,-1.16
2019-01-30T02:45:53.200Z,-1.16
2019-01-30T02:46:53.212Z,-1.05
2019-01-30T02:47:53.225Z,-1.04
2019-01-30T02:48:53.231Z,-1.02
2019-01-30T02:49:53.244Z,-1.04
2019-01-30T02:50:53.256Z,-0.97
2019-01-30T02:52:07.926Z,-1.09
2019-01-30T02:52:53.283Z,-1.09
2019-01-30T02:53:53.288Z,-0.99
2019-01-30T02:54:53.297Z,-1.01
2019-01-30T02:55:53.320Z,-0.98
2019-01-30T02:56:53.321Z,-0.94
2019-01-30T02:57:53.348Z,-1.02
2019-01-30T02:58:53.340Z,-1.01
2019-01-30T02:59:53.347Z,-0.99
2019-01-30T03:01:04.132Z,-1.05
2019-01-30T03:01:53.377Z,-0.95
2019-01-30T03:02:53.403Z,-1.01
2019-01-30T03:03:53.402Z,-1.09
2019-01-30T03:04:53.408Z,-1.12
2019-01-30T03:05:53.415Z,-1.09
2019-01-30T03:06:53.426Z,-1.04
2019-01-30T03:08:08.101Z,-1.16
2019-01-30T03:08:53.452Z,-1.19
2019-01-30T03:09:53.512Z,-1.15
2019-01-30T03:10:53.475Z,-1.05
2019-01-30T03:11:53.480Z,-1.16
2019-01-30T03:12:53.488Z,-1.19
2019-01-30T03:13:53.501Z,-1.07
2019-01-30T03:14:53.510Z,-1.15
2019-01-30T03:15:53.531Z,-1.15
2019-01-30T03:16:53.548Z,-1.19
2019-01-30T03:17:53.587Z,-1.16
2019-01-30T03:18:53.556Z,-1.13
2019-01-30T03:19:53.574Z,-1.13
2019-01-30T03:20:53.576Z,-1.15
2019-01-30T03:21:53.591Z,-1.13
2019-01-30T03:22:53.605Z,-1.09
2019-01-30T03:24:08.276Z,-1.02
2019-01-30T03:24:53.654Z,-1.04
2019-01-30T03:25:53.645Z,-1.07
2019-01-30T03:26:53.645Z,-1.1
2019-01-30T03:27:53.664Z,-1.07
2019-01-30T03:28:53.667Z,-1.15
2019-01-30T03:29:53.677Z,-1.15
2019-01-30T03:30:53.696Z,-1.17
2019-01-30T03:31:53.705Z,-1.09
2019-01-30T03:34:53.741Z,-1.17
2019-01-30T03:35:53.746Z,-1.19
2019-01-30T03:37:08.418Z,-1.1
2019-01-30T03:37:53.774Z,-1.09
2019-01-30T03:38:53.777Z,-1.12
2019-01-30T03:40:08.445Z,-1.05
2019-01-30T03:40:53.796Z,-1.17
2019-01-30T03:41:53.815Z,-1.13
2019-01-30T03:42:53.817Z,-1.15
2019-01-30T03:43:53.835Z,-1.16
2019-01-30T03:44:53.841Z,-1.12
2019-01-30T03:45:53.849Z,-1.13
2019-01-30T03:46:53.896Z,-1.16
2019-01-30T03:47:53.878Z,-1.13
2019-01-30T03:48:53.982Z,-1.15
2019-01-30T03:49:53.893Z,-1.2
2019-01-30T03:50:53.921Z,-1.27
2019-01-30T03:52:08.575Z,-1.17
2019-01-30T03:53:08.587Z,-1.23
2019-01-30T03:53:53.939Z,-1.15
2019-01-30T03:55:08.608Z,-1.13
2019-01-30T03:55:53.957Z,-1.19
2019-01-30T03:56:54.076Z,-1.25
2019-01-30T03:58:08.657Z,-1.25
2019-01-30T03:58:53.996Z,-1.23
2019-01-30T03:59:54.001Z,-1.23
2019-01-30T04:00:53.767Z,-1.28
2019-01-30T04:01:54.021Z,-1.3
2019-01-30T04:03:08.700Z,-1.31
2019-01-30T04:03:54.043Z,-1.28
2019-01-30T04:04:54.052Z,-1.22
2019-01-30T04:05:54.065Z,-1.22
2019-01-30T04:06:54.133Z,-1.33
2019-01-30T04:07:54.084Z,-1.31
2019-01-30T04:08:54.100Z,-1.35
2019-01-30T04:09:54.110Z,-1.4
2019-01-30T04:10:54.118Z,-1.31
2019-01-30T04:11:54.131Z,-1.4
2019-01-30T04:12:54.142Z,-1.35
2019-01-30T04:13:54.151Z,-1.31
2019-01-30T04:14:54.163Z,-1.31
2019-01-30T04:15:54.183Z,-1.35
2019-01-30T04:16:54.186Z,-1.31
2019-01-30T04:17:54.199Z,-1.4
2019-01-30T04:18:54.219Z,-1.31
2019-01-30T04:20:54.234Z,-1.31
2019-01-30T04:21:54.240Z,-1.41
2019-01-30T04:22:54.259Z,-1.34
2019-01-30T04:23:54.268Z,-1.4
2019-01-30T04:25:08.930Z,-1.34
2019-01-30T04:25:54.033Z,-1.33
2019-01-30T04:27:08.953Z,-1.4
2019-01-30T04:27:54.316Z,-1.41
2019-01-30T04:28:54.362Z,-1.48
2019-01-30T04:29:54.353Z,-1.4
2019-01-30T04:30:54.332Z,-1.35
2019-01-30T04:31:54.380Z,-1.37
2019-01-30T04:32:54.356Z,-1.4
2019-01-30T04:33:54.382Z,-1.4
2019-01-30T04:34:54.384Z,-1.48
2019-01-30T04:35:54.395Z,-1.43
2019-01-30T04:36:54.397Z,-1.45
2019-01-30T04:37:54.497Z,-1.43
2019-01-30T04:39:09.098Z,-1.4
2019-01-30T04:39:54.431Z,-1.43
2019-01-30T04:40:54.454Z,-1.49
2019-01-30T04:41:54.452Z,-1.54
2019-01-30T04:43:09.129Z,-1.38
2019-01-30T04:43:54.472Z,-1.48
2019-01-30T04:44:54.532Z,-1.45
2019-01-30T04:46:54.515Z,-1.49
2019-01-30T04:47:54.514Z,-1.43
2019-01-30T04:48:54.285Z,-1.45
2019-01-30T04:49:54.536Z,-1.51
2019-01-30T04:50:54.560Z,-1.49
2019-01-30T04:51:54.555Z,-1.43
2019-01-30T04:52:54.573Z,-1.41
2019-01-30T04:53:54.587Z,-1.52
2019-01-30T04:54:54.595Z,-1.43
2019-01-30T04:55:54.599Z,-1.4
2019-01-30T04:56:54.609Z,-1.46
2019-01-30T04:57:54.622Z,-1.51
2019-01-30T04:59:09.294Z,-1.54
2019-01-30T04:59:54.665Z,-1.49
2019-01-30T05:00:54.659Z,-1.49
2019-01-30T05:02:54.679Z,-1.4
2019-01-30T05:03:54.790Z,-1.41
2019-01-30T05:05:54.722Z,-1.45
2019-01-30T05:06:54.726Z,-1.31
2019-01-30T05:07:54.763Z,-1.46
2019-01-30T05:10:09.412Z,-1.52
2019-01-30T05:11:09.421Z,-1.55
2019-01-30T05:11:54.771Z,-1.51
2019-01-30T05:12:54.787Z,-1.54
2019-01-30T05:13:54.802Z,-1.49
2019-01-30T05:15:09.468Z,-1.54
2019-01-30T05:15:54.824Z,-1.58
2019-01-30T05:16:54.822Z,-1.51
2019-01-30T05:17:54.851Z,-1.43
2019-01-30T05:18:54.848Z,-1.51
2019-01-30T05:19:54.858Z,-1.51
2019-01-30T05:21:09.279Z,-1.45
2019-01-30T05:21:54.880Z,-1.46
2019-01-30T05:22:54.891Z,-1.49
2019-01-30T05:23:54.897Z,-1.49
2019-01-30T05:25:54.917Z,-1.45
2019-01-30T05:26:54.936Z,-1.54
2019-01-30T05:27:54.950Z,-1.55
2019-01-30T05:28:54.952Z,-1.54
2019-01-30T05:30:09.624Z,-1.48
2019-01-30T05:30:54.973Z,-1.55
2019-01-30T05:32:05.588Z,-1.61
2019-01-30T05:32:54.999Z,-1.55
2019-01-30T05:33:55.002Z,-1.54
2019-01-30T05:34:55.016Z,-1.46
2019-01-30T05:35:55.025Z,-1.61
2019-01-30T05:36:54.795Z,-1.55
2019-01-30T05:40:55.079Z,-1.56
2019-01-30T05:41:55.106Z,-1.58
2019-01-30T05:42:55.103Z,-1.56
2019-01-30T05:43:55.115Z,-1.62
2019-01-30T05:44:55.128Z,-1.59
2019-01-30T05:45:55.240Z,-1.58
2019-01-30T05:46:55.158Z,-1.61
2019-01-30T05:47:55.150Z,-1.59
2019-01-30T05:48:55.171Z,-1.58
2019-01-30T05:49:55.172Z,-1.55
2019-01-30T05:51:55.209Z,-1.49
2019-01-30T05:53:55.236Z,-1.62
2019-01-30T05:54:55.225Z,-1.61
2019-01-30T05:55:55.238Z,-1.62
2019-01-30T05:56:55.264Z,-1.58
2019-01-30T05:57:55.275Z,-1.62
2019-01-30T05:58:55.271Z,-1.61
2019-01-30T05:59:55.277Z,-1.59
2019-01-30T06:01:09.951Z,-1.52
2019-01-30T06:02:15.820Z,-1.58
2019-01-30T06:02:55.462Z,-1.55
2019-01-30T06:03:55.328Z,-1.58
2019-01-30T06:04:55.333Z,-1.58
2019-01-30T06:05:55.344Z,-1.56
2019-01-30T06:06:55.362Z,-1.59
2019-01-30T06:07:55.363Z,-1.49
2019-01-30T06:08:55.374Z,-1.46
2019-01-30T06:09:55.385Z,-1.49
2019-01-30T06:11:55.419Z,-1.55
2019-01-30T06:13:10.078Z,-1.46
2019-01-30T06:13:55.426Z,-1.55
2019-01-30T06:15:10.102Z,-1.52
2019-01-30T06:15:55.492Z,-1.46
2019-01-30T06:16:55.458Z,-1.48
2019-01-30T06:18:10.132Z,-1.46
2019-01-30T06:18:55.486Z,-1.46
2019-01-30T06:19:55.506Z,-1.51
2019-01-30T06:20:55.502Z,-1.51
2019-01-30T06:21:55.511Z,-1.59
2019-01-30T06:22:55.531Z,-1.52
2019-01-30T06:24:10.204Z,-1.59
2019-01-30T06:24:55.558Z,-1.62
2019-01-30T06:25:55.581Z,-1.61
2019-01-30T06:26:55.567Z,-1.61
2019-01-30T06:27:55.578Z,-1.61
2019-01-30T06:28:55.689Z,-1.62
2019-01-30T06:29:55.604Z,-1.56
2019-01-30T06:30:55.607Z,-1.59
2019-01-30T06:31:55.620Z,-1.55
2019-01-30T06:32:55.642Z,-1.58
2019-01-30T06:34:10.304Z,-1.58
2019-01-30T06:34:56.690Z,-1.55
2019-01-30T06:35:55.773Z,-1.59
2019-01-30T06:36:55.671Z,-1.59
2019-01-30T06:37:55.679Z,-1.59
2019-01-30T06:38:55.690Z,-1.49
2019-01-30T06:39:55.781Z,-1.58
2019-01-30T06:40:55.711Z,-1.61
2019-01-30T06:42:10.388Z,-1.55
2019-01-30T06:42:55.744Z,-1.59
2019-01-30T06:43:55.846Z,-1.61
2019-01-30T06:45:10.417Z,-1.56
2019-01-30T06:45:55.765Z,-1.55
2019-01-30T06:47:10.436Z,-1.52
2019-01-30T06:47:55.798Z,-1.46
2019-01-30T06:48:56.245Z,-1.54
2019-01-30T06:50:10.468Z,-1.52
2019-01-30T06:50:55.818Z,-1.55
2019-01-30T06:51:55.831Z,-1.49
2019-01-30T06:52:55.836Z,-1.54
2019-01-30T06:53:55.851Z,-1.51
2019-01-30T06:54:55.858Z,-1.49
2019-01-30T06:55:55.869Z,-1.48
2019-01-30T06:56:55.879Z,-1.54
2019-01-30T06:57:55.897Z,-1.51
2019-01-30T06:58:55.967Z,-1.48
2019-01-30T06:59:55.916Z,-1.43
2019-01-30T07:00:57.661Z,-1.43
2019-01-30T07:02:55.944Z,-1.45
2019-01-30T07:03:55.958Z,-1.45
2019-01-30T07:05:10.722Z,-1.38
2019-01-30T07:05:55.982Z,-1.43
2019-01-30T07:06:55.987Z,-1.43
2019-01-30T07:08:56.086Z,-1.46
2019-01-30T07:09:56.020Z,-1.48
2019-01-30T07:10:56.030Z,-1.38
2019-01-30T07:11:56.041Z,-1.38
2019-01-30T07:12:56.051Z,-1.27
2019-01-30T07:13:56.064Z,-1.3
2019-01-30T07:15:56.090Z,-1.3
2019-01-30T07:16:56.097Z,-1.3
2019-01-30T07:17:56.107Z,-1.33
2019-01-30T07:18:56.117Z,-1.33
2019-01-30T07:19:56.126Z,-1.19
2019-01-30T07:20:56.136Z,-1.19
2019-01-30T07:21:56.153Z,-1.19
2019-01-30T07:22:56.164Z,-1.07
2019-01-30T07:23:56.184Z,-1.09
2019-01-30T07:24:56.188Z,-1.04
2019-01-30T07:25:56.195Z,-1.07
2019-01-30T07:26:56.208Z,-1.05
2019-01-30T07:27:56.213Z,-1.07
2019-01-30T07:28:56.330Z,-1.02
2019-01-30T07:29:56.233Z,-0.95
2019-01-30T07:30:56.247Z,-0.99
2019-01-30T07:31:56.257Z,-0.99
2019-01-30T07:32:56.274Z,-0.95
2019-01-30T07:33:56.375Z,-0.98
2019-01-30T07:34:56.288Z,-0.95
2019-01-30T07:35:56.298Z,-0.97
2019-01-30T07:37:10.972Z,-0.92
2019-01-30T07:37:58.589Z,-0.99
2019-01-30T07:38:56.361Z,-1.02
2019-01-30T07:39:56.342Z,-0.89
2019-01-30T07:40:56.369Z,-0.89
2019-01-30T07:41:56.366Z,-0.89
2019-01-30T07:42:56.393Z,-0.92
2019-01-30T07:43:56.387Z,-0.82
2019-01-30T07:45:56.411Z,-0.82
2019-01-30T07:47:56.434Z,-0.7
2019-01-30T07:49:11.106Z,-0.65
2019-01-30T07:50:11.118Z,-0.6
2019-01-30T07:50:56.464Z,-0.73
2019-01-30T07:51:56.476Z,-0.58
2019-01-30T07:53:11.151Z,-0.54
2019-01-30T07:53:57.343Z,-0.58
2019-01-30T07:54:56.511Z,-0.58
2019-01-30T07:55:56.531Z,-0.54
2019-01-30T07:56:56.536Z,-0.51
2019-01-30T07:57:56.625Z,-0.42
2019-01-30T07:59:11.226Z,-0.36
2019-01-30T07:59:56.578Z,-0.16
2019-01-30T08:00:56.580Z,-0.08
2019-01-30T08:01:56.591Z,-0.07
2019-01-30T08:02:58.103Z,-0.04
2019-01-30T08:03:56.618Z,-0.04
2019-01-30T08:05:11.289Z,0
2019-01-30T08:05:56.656Z,-0.03
2019-01-30T08:06:56.651Z,0
2019-01-30T08:08:11.338Z,-0.03
2019-01-30T08:09:11.343Z,-0.05
2019-01-30T08:09:56.691Z,-0.08
2019-01-30T08:11:56.716Z,0
2019-01-30T08:12:56.720Z,0.11
2019-01-30T08:13:56.735Z,0.02
2019-01-30T08:14:56.746Z,-0.04
2019-01-30T08:15:56.756Z,0.04
2019-01-30T08:18:56.795Z,-0.03
2019-01-30T08:19:56.892Z,0.11
2019-01-30T08:20:56.817Z,0.15
2019-01-30T08:21:56.829Z,0.18
2019-01-30T08:22:57.264Z,0.2
2019-01-30T08:23:57.617Z,0.13
2019-01-30T08:25:11.872Z,0.23
2019-01-30T08:26:57.704Z,0.32
2019-01-30T08:27:57.443Z,0.35
2019-01-30T08:28:57.388Z,0.28
2019-01-30T08:29:57.422Z,0.39
2019-01-30T08:30:57.407Z,0.46
2019-01-30T08:31:57.761Z,0.5
2019-01-30T08:33:06.810Z,0.47
2019-01-30T08:34:56.983Z,0.5
2019-01-30T08:35:56.995Z,0.53
2019-01-30T08:36:57.010Z,0.62
2019-01-30T08:37:57.028Z,0.68
2019-01-30T08:38:57.040Z,0.72
2019-01-30T08:40:11.814Z,0.69
2019-01-30T08:40:57.062Z,0.7
2019-01-30T08:41:57.075Z,0.76
2019-01-30T08:42:57.227Z,0.72
2019-01-30T08:43:57.998Z,0.68
2019-01-30T08:44:57.106Z,0.73
2019-01-30T08:45:57.178Z,0.86
2019-01-30T08:46:57.132Z,0.8
2019-01-30T08:47:57.146Z,0.84
2019-01-30T08:48:57.202Z,0.87
2019-01-30T08:49:57.172Z,0.9
2019-01-30T08:50:57.225Z,0.98
2019-01-30T08:51:57.196Z,1
2019-01-30T08:53:11.870Z,0.96
2019-01-30T08:53:57.219Z,1
2019-01-30T08:54:57.235Z,0.97
2019-01-30T08:55:57.251Z,1.02
2019-01-30T08:57:12.762Z,0.98
2019-01-30T08:57:57.275Z,1
2019-01-30T08:58:57.281Z,1.08
2019-01-30T08:59:57.364Z,1.2
2019-01-30T09:00:57.316Z,0.97
2019-01-30T09:01:57.318Z,1.11
2019-01-30T09:04:12.011Z,1.16
2019-01-30T09:04:57.356Z,1.15
2019-01-30T09:05:57.381Z,1.24
2019-01-30T09:06:57.382Z,1.16
2019-01-30T09:07:57.412Z,1.22
2019-01-30T09:09:12.068Z,1.09
2019-01-30T09:09:57.437Z,1.12
2019-01-30T09:10:57.431Z,1.26
2019-01-30T09:12:12.108Z,1.32
2019-01-30T09:12:57.470Z,1.41
2019-01-30T09:13:57.481Z,1.42
2019-01-30T09:15:12.154Z,1.42
2019-01-30T09:15:57.498Z,1.26
2019-01-30T09:17:57.534Z,1.37
2019-01-30T09:19:00.181Z,1.5
2019-01-30T09:19:57.551Z,1.44
2019-01-30T09:20:57.557Z,1.44
2019-01-30T09:21:57.580Z,1.51
2019-01-30T09:23:12.248Z,1.44
2019-01-30T09:23:57.600Z,1.41
2019-01-30T09:25:12.273Z,1.42
2019-01-30T09:25:57.622Z,1.47
2019-01-30T09:26:57.634Z,1.47
2019-01-30T09:28:12.312Z,1.5
2019-01-30T09:28:57.755Z,1.55
2019-01-30T09:29:57.677Z,1.58
2019-01-30T09:31:57.703Z,1.63
2019-01-30T09:33:25.262Z,1.65
2019-01-30T09:33:57.760Z,1.69
2019-01-30T09:34:57.868Z,1.7
2019-01-30T09:36:57.767Z,1.77
2019-01-30T09:37:57.815Z,1.76
2019-01-30T09:38:57.838Z,1.8
2019-01-30T09:39:57.964Z,1.9
2019-01-30T09:40:57.851Z,2.03
2019-01-30T09:41:57.838Z,2.03
2019-01-30T09:43:12.551Z,2.09
2019-01-30T09:44:12.572Z,2.12
2019-01-30T09:45:57.940Z,2.1
2019-01-30T09:46:57.915Z,2.09
2019-01-30T09:47:58.018Z,2.06
2019-01-30T09:48:57.933Z,2.2
2019-01-30T09:49:57.685Z,2.07
2019-01-30T09:50:57.997Z,2.07
2019-01-30T09:51:58.116Z,2.18
2019-01-30T09:52:58.005Z,2.18
2019-01-30T09:54:00.122Z,2.2
2019-01-30T09:54:58.087Z,2.07
2019-01-30T09:55:58.038Z,2.14
2019-01-30T09:56:58.065Z,2.12
2019-01-30T09:58:17.245Z,2.06
2019-01-30T09:58:58.061Z,2.24
2019-01-30T10:00:12.730Z,2.21
2019-01-30T10:00:58.080Z,2.25
2019-01-30T10:01:58.109Z,2.21
2019-01-30T10:02:58.107Z,2.23
2019-01-30T10:03:58.123Z,2.35
2019-01-30T10:05:58.149Z,2.34
2019-01-30T10:06:58.160Z,2.35
2019-01-30T10:08:00.074Z,2.35
2019-01-30T10:09:58.214Z,2.36
2019-01-30T10:10:58.213Z,2.48
2019-01-30T10:12:12.890Z,2.36
2019-01-30T10:12:58.259Z,2.52
2019-01-30T10:13:58.261Z,2.35
2019-01-30T10:15:12.932Z,2.42
2019-01-30T10:15:58.288Z,2.34
2019-01-30T10:17:58.308Z,2.46
2019-01-30T10:18:58.320Z,2.36
2019-01-30T10:19:58.425Z,2.34
2019-01-30T10:20:58.350Z,2.49
2019-01-30T10:21:58.362Z,2.56
2019-01-30T10:22:58.381Z,2.49
2019-01-30T10:24:58.403Z,2.52
2019-01-30T10:25:58.416Z,2.54
2019-01-30T10:26:58.436Z,2.42
2019-01-30T10:28:16.401Z,2.56
2019-01-30T10:28:58.458Z,2.46
2019-01-30T10:30:58.484Z,2.46
2019-01-30T10:31:58.493Z,2.52
2019-01-30T10:32:58.515Z,2.57
2019-01-30T10:33:58.521Z,2.57
2019-01-30T10:34:58.549Z,2.66
2019-01-30T10:35:58.548Z,2.71
2019-01-30T10:36:58.623Z,2.63
2019-01-30T10:37:58.574Z,2.63
2019-01-30T10:39:58.611Z,2.81
2019-01-30T10:40:58.617Z,2.82
2019-01-30T10:41:58.643Z,2.9
2019-01-30T10:42:59.908Z,2.75
2019-01-30T10:43:58.666Z,2.81
2019-01-30T10:45:13.328Z,2.84
2019-01-30T10:45:58.686Z,2.85
2019-01-30T10:47:13.363Z,2.77
2019-01-30T10:48:58.721Z,2.84
2019-01-30T10:50:13.148Z,2.75
2019-01-30T10:50:58.748Z,2.78
2019-01-30T10:52:13.429Z,2.81
2019-01-30T10:52:58.890Z,2.75
2019-01-30T10:53:58.791Z,2.71
2019-01-30T10:54:58.807Z,2.89
2019-01-30T10:56:58.827Z,2.9
2019-01-30T10:57:58.941Z,2.96
2019-01-30T10:58:58.859Z,3
2019-01-30T10:59:58.957Z,2.93
2019-01-30T11:00:58.878Z,2.93
2019-01-30T11:01:58.896Z,3
2019-01-30T11:03:13.569Z,2.89
2019-01-30T11:04:02.239Z,2.96
2019-01-30T11:04:58.942Z,2.96
2019-01-30T11:05:59.007Z,2.89
2019-01-30T11:06:58.967Z,3.03
2019-01-30T11:07:58.967Z,3.14
2019-01-30T11:08:58.980Z,3.1
2019-01-30T11:09:59.005Z,3.2
2019-01-30T11:11:07.454Z,3.03
2019-01-30T11:11:59.019Z,3.08
2019-01-30T11:12:59.037Z,3.17
2019-01-30T11:13:59.180Z,3.17
2019-01-30T11:15:13.729Z,3.1
2019-01-30T11:16:01.142Z,3.11
2019-01-30T11:16:59.094Z,3.15
2019-01-30T11:17:59.117Z,3.14
2019-01-30T11:19:13.779Z,3.06
2019-01-30T11:19:59.150Z,3.14
2019-01-30T11:20:59.264Z,3.03
2019-01-30T11:21:59.163Z,3.2
2019-01-30T11:22:59.168Z,3.08
2019-01-30T11:23:59.181Z,3.18
2019-01-30T11:25:00.614Z,3.17
2019-01-30T11:26:01.757Z,3.11
2019-01-30T11:27:59.237Z,3.05
2019-01-30T11:28:59.246Z,3.17
2019-01-30T11:31:13.935Z,3.03
2019-01-30T11:31:59.292Z,3.15
2019-01-30T11:33:00.492Z,3.17
2019-01-30T11:34:09.705Z,3.14
2019-01-30T11:35:13.987Z,3.17
2019-01-30T11:35:59.344Z,3.2
2019-01-30T11:37:00.159Z,3.14
2019-01-30T11:37:59.365Z,3.14
2019-01-30T11:38:59.376Z,3.29
2019-01-30T11:39:59.401Z,3.28
2019-01-30T11:40:59.403Z,3.21
2019-01-30T11:41:59.419Z,3.33
2019-01-30T11:42:59.431Z,3.32
2019-01-30T11:43:59.443Z,3.33
2019-01-30T11:44:59.468Z,3.29
2019-01-30T11:45:59.476Z,3.26
2019-01-30T11:46:59.489Z,3.31
2019-01-30T11:47:59.507Z,3.32
2019-01-30T11:49:01.499Z,3.35
2019-01-30T11:50:14.193Z,3.43
2019-01-30T11:50:59.545Z,3.52
2019-01-30T11:51:59.559Z,3.35
2019-01-30T11:52:59.571Z,3.47
2019-01-30T11:53:59.577Z,3.54
2019-01-30T11:54:59.595Z,3.52
2019-01-30T11:55:59.612Z,3.61
2019-01-30T11:56:59.621Z,3.58
2019-01-30T11:57:59.646Z,3.48
2019-01-30T11:58:59.645Z,3.35
2019-01-30T11:59:59.662Z,3.57
2019-01-30T12:00:59.456Z,3.52
2019-01-30T12:01:59.703Z,3.54
2019-01-30T12:02:59.769Z,3.62
2019-01-30T12:03:59.712Z,3.57
2019-01-30T12:04:59.724Z,3.61
2019-01-30T12:05:59.838Z,3.66
2019-01-30T12:06:59.757Z,3.62
2019-01-30T12:07:59.769Z,3.6
2019-01-30T12:08:59.781Z,3.58
2019-01-30T12:10:00.805Z,3.57
2019-01-30T12:10:59.806Z,3.52
2019-01-30T12:11:59.826Z,3.52
2019-01-30T12:12:59.838Z,3.58
2019-01-30T12:13:59.847Z,3.6
2019-01-30T12:14:59.859Z,3.54
2019-01-30T12:17:14.552Z,3.54
2019-01-30T12:18:59.914Z,3.62
2019-01-30T12:19:59.931Z,3.66
2019-01-30T12:22:14.619Z,3.66
2019-01-30T12:22:59.971Z,3.61
2019-01-30T12:23:59.987Z,3.6
2019-01-30T12:25:00.005Z,3.66
2019-01-30T12:25:59.856Z,3.76
2019-01-30T12:28:00.036Z,3.76
2019-01-30T12:30:00.093Z,3.86
2019-01-30T12:32:00.088Z,3.72
2019-01-30T12:33:00.106Z,3.88
2019-01-30T12:34:14.779Z,3.86
2019-01-30T12:35:00.197Z,3.79
2019-01-30T12:36:00.152Z,3.69
2019-01-30T12:37:00.192Z,3.84
2019-01-30T12:38:14.837Z,3.8
2019-01-30T12:39:00.184Z,3.84
2019-01-30T12:40:00.319Z,3.83
2019-01-30T12:41:00.212Z,3.79
2019-01-30T12:42:00.327Z,3.86
2019-01-30T12:43:00.238Z,3.8
2019-01-30T12:44:00.258Z,3.76
2019-01-30T12:45:00.349Z,3.69
2019-01-30T12:46:00.282Z,3.79
2019-01-30T12:47:00.294Z,3.79
2019-01-30T12:49:00.318Z,3.75
2019-01-30T12:50:00.339Z,3.61
2019-01-30T12:51:00.350Z,3.69
2019-01-30T12:52:00.359Z,3.7
2019-01-30T12:53:00.374Z,3.69
2019-01-30T12:54:15.052Z,3.7
2019-01-30T12:55:00.401Z,3.72
2019-01-30T12:56:00.415Z,3.8
2019-01-30T12:57:00.429Z,3.78
2019-01-30T12:58:00.447Z,3.78
2019-01-30T12:59:00.458Z,3.79
2019-01-30T13:00:00.475Z,3.72
2019-01-30T13:01:00.484Z,3.76
2019-01-30T13:02:00.494Z,3.75
2019-01-30T13:03:00.515Z,3.76
2019-01-30T13:04:00.524Z,3.78
2019-01-30T13:05:00.536Z,3.7
2019-01-30T13:06:00.548Z,3.72
2019-01-30T13:07:00.565Z,3.73
2019-01-30T13:08:00.575Z,3.72
2019-01-30T13:09:15.251Z,3.76
2019-01-30T13:10:15.268Z,3.75
2019-01-30T13:11:00.616Z,3.68
2019-01-30T13:12:00.632Z,3.76
2019-01-30T13:13:00.647Z,3.68
2019-01-30T13:14:00.657Z,3.68
2019-01-30T13:15:00.673Z,3.68
2019-01-30T13:17:00.700Z,3.69
2019-01-30T13:19:00.777Z,3.57
2019-01-30T13:20:00.845Z,3.75
2019-01-30T13:22:00.779Z,3.75
2019-01-30T13:23:00.793Z,3.7
2019-01-30T13:24:00.794Z,3.65
2019-01-30T13:25:15.473Z,3.72
2019-01-30T13:26:00.826Z,3.7
2019-01-30T13:27:00.835Z,3.72
2019-01-30T13:28:00.855Z,3.7
2019-01-30T13:29:00.861Z,3.73
2019-01-30T13:30:00.878Z,3.7
2019-01-30T13:31:00.889Z,3.66
2019-01-30T13:32:00.903Z,3.66
2019-01-30T13:33:00.991Z,3.7
2019-01-30T13:34:00.933Z,3.66
2019-01-30T13:35:00.947Z,3.72
2019-01-30T13:37:15.634Z,3.68
2019-01-30T13:38:01.022Z,3.73
2019-01-30T13:39:00.995Z,3.73
2019-01-30T13:40:01.009Z,3.65
2019-01-30T13:41:01.032Z,3.57
2019-01-30T13:42:01.045Z,3.66
2019-01-30T13:43:01.064Z,3.61
2019-01-30T13:44:01.067Z,3.6
2019-01-30T13:45:01.079Z,3.6
2019-01-30T13:46:10.250Z,3.62
2019-01-30T13:47:01.103Z,3.65
2019-01-30T13:48:01.157Z,3.62
2019-01-30T13:50:01.148Z,3.61
2019-01-30T13:51:01.200Z,3.65
2019-01-30T13:52:01.229Z,3.58
2019-01-30T13:53:01.204Z,3.6
2019-01-30T13:54:00.968Z,3.55
2019-01-30T13:55:01.227Z,3.51
2019-01-30T13:56:01.243Z,3.55
2019-01-30T13:57:15.907Z,3.57
2019-01-30T13:58:01.316Z,3.57
2019-01-30T13:59:01.301Z,3.61
2019-01-30T14:00:01.325Z,3.6
2019-01-30T14:01:01.319Z,3.54
2019-01-30T14:02:01.358Z,3.51
2019-01-30T14:03:01.379Z,3.52
2019-01-30T14:04:01.342Z,3.48
2019-01-30T14:05:04.579Z,3.43
2019-01-30T14:06:01.376Z,3.45